NWS Home NWS Lubbock West Texas Mesonet Latest Conditions as of 0813 PM, Wed Jul 17, 2019

Latest   N   C   S   Daily Sum   3hrΔ   24hrΔ   Soil Data 
Site Map   24hr Precip   72hr Precip   Google Plot


Station Time of Last Temp Dew Pt. RH Wind Direction Wind Speed Wind Gust Max Wind Max Temp Min Temp Max RH Min RH Altimeter 1HR Rain Today's Rain Solar Rad RFTI
Abernathy 5ENE  08:05 PM 92 52 27% S1518 33 mph 180° @ 0235 PM 96 72 75 25 29.96" 0 0 114 0
Adrian 6WSW  08:05 PM 91 56 30% S1921 35 mph 189° @ 0303 PM 99 70 61 24 29.95" 0 0 125 0
Aiken 3WSW  08:05 PM 91 61 37% S1620 29 mph 198° @ 0221 PM 96 73 72 28 29.96" 0 0 110 0
Amarillo 15NNW   08:05 PM 94 55 27% S2025 34 mph 207° @ 0848 AM 100 77 58 25 29.88" 0 0 123 0
Amarillo 7SSE  08:05 PM 92 54 29% S1723 33 mph 216° @ 0910 AM 98 72 62 24 29.94" 0 0 113 0
Amarillo 9NNE  08:05 PM 92 57 31% S1823 45 mph 176° @ 0200 AM 97 70 83 26 29.89" 0 0.63 97 0
Amherst 1NE  08:05 PM 88 56 35% SE1418 25 mph 182° @ 0245 PM 94 69 76 28 29.95" 0 0 27 0
Andrews 2E  08:05 PM 93 57 31% S1420 24 mph 178° @ 0615 PM 99 74 69 23 29.94" 0 0 14 0
Anton 6SSW  08:05 PM 91 54 29% SE1520 28 mph 176° @ 0125 PM 97 71 71 24 29.95" 0 0 29 0
Aspermont 3NE  08:05 PM 94 64 38% S1217 25 mph 158° @ 0215 PM 99 77 78 30 29.89" 0 0 94 0
Big Bend NP - Castolon  08:05 PM 78 66 67% SE2327 60 mph 8° @ 0639 PM 107 71 84 20 29.95" 0.67 0.92 7 0
Big Bend NP - Persimmon Gap  08:05 PM 74 66 76% NE1214 41 mph 260° @ 0458 PM 102 72 87 24 29.96" 0 0.54 2 0
Bootleg 11WNW  08:05 PM 90 56 32% S2224 33 mph 201° @ 0931 AM 96 68 65 26 29.99" 0 0 116 1
Boys Ranch 1WSW  08:05 PM 94 58 30% S911 30 mph 196° @ 0139 PM 100 72 66 26 29.87" 0 0 119 0
Brownfield 2S  04:05 PM M M M% S1521 27 mph 163° @ 0150 PM -18** M 70 M --0 0 845 1
Canadian 6E  08:05 PM 92 65 40% SE1824 32 mph 179° @ 0345 PM 99 74 76 29 29.84" 0 0 103 0
Caprock Canyons State Park  08:05 PM 93 58 31% SE1921 34 mph 220° @ 0920 AM 100 77 61 21 29.91" 0 0 98 0
Childress 2NNE  08:05 PM 94 58 32% SE1726 29 mph 159° @ 0755 PM 100 77 69 28 29.87" 0 0 103 0
Clarendon 2WSW  08:05 PM 94 58 31% S1927 33 mph 162° @ 0405 PM 100 75 66 20 29.90" 0 0 110 0
Claude 12SW  08:05 PM 93 55 28% S1115 29 mph 215° @ 0708 AM 99 76 61 22 29.93" 0 0 123 0
Clyde 2WNW  08:05 PM 90 64 43% S911 30 mph 204° @ 0408 PM 95 74 87 38 29.95" 0 0 80 0
Colorado City 5NW  08:05 PM 92 61 35% SE1721 27 mph 149° @ 0514 PM 98 75 81 31 29.92" 0 0 102 0
Coyanosa 2N  08:05 PM 86 61 43% SE78 43 mph 134° @ 0443 PM 103 77 65 27 29.92" 0 0 24 0
Crane 1NNW   08:05 PM 91 62 38% SW1517 31 mph 150° @ 0607 PM 100 77 69 33 29.93" 0 0 27 0
Crowell 1E  08:05 PM 94 67 42% SE2026 32 mph 185° @ 0225 PM 102 79 69 28 29.87" 0 0 102 0
Dell City  08:05 PM 87 58 38% SE2023 26 mph 148° @ 0804 PM 100 75 74 22 29.97" 0 0 77 0
Denver City 7WNW  08:05 PM 86 53 34% W1421 28 mph 150° @ 0550 PM 97 72 71 19 29.98" 0 0 19 0
Dimmitt 2NE  08:05 PM 91 55 31% S1621 34 mph 181° @ 0120 PM 97 70 68 24 29.96" 0 0 112 0
Dora NM 2SW  08:05 PM 83 62 52% SE911 41 mph 239° @ 0505 PM 97 70 70 21 29.99" 0 0.06 53 0
Dozier 3W  08:05 PM 95 64 36% SE1114 32 mph 175° @ 0421 PM 102 74 80 27 29.88" 0 0 100 0
Earth 9WSW  08:05 PM 90 55 32% SE1317 28 mph 154° @ 0112 PM 97 67 74 25 29.96" 0 0 31 0
Endee NM 2SW  08:05 PM 93 57 30% S1922 35 mph 193° @ 0136 PM 100 68 85 23 29.92" 0 0 127 0
Estelline 3SSE  08:05 PM 96 61 32% S1416 28 mph 199° @ 0125 PM 102 74 76 28 29.86" 0 0 97 0
Floydada 2NNE  08:05 PM 91 56 32% SE1319 28 mph 191° @ 0300 PM 96 69 79 27 29.95" 0 0 106 0
Fluvanna 3WNW  08:05 PM 91 61 39% SE1524 28 mph 161° @ 0525 PM 96 75 75 28 29.94" 0 0 97 0
Fort Chadbourne  08:05 PM 91 64 42% S810 27 mph 167° @ 0525 PM 95 73 93 38 29.94" 0 0 96 0
Fort Lancaster  08:05 PM 92 64 40% S1418 29 mph 142° @ 0134 PM 97 77 81 36 29.93" 0 0 26 0
Fort Lewis CO  08:05 PM 78 35 21% W1314 29 mph 262° @ 0404 PM 85 56 72 19 30.28" 0 0 228 0
Fort McKavett  08:05 PM 90 64 43% SE1014 27 mph 166° @ 0425 PM 96 73 86 36 29.97" 0 0 86 0
Friona 2NE  08:05 PM 91 53 29% SE2025 31 mph 177° @ 0330 PM 96 69 70 26 29.96" 0 0 135 0
Fritch 1WNW  08:05 PM 95 55 26% S1924 36 mph 219° @ 1028 AM 100 76 60 24 29.87" 0 0 98 0
Gail 2ESE  08:05 PM 93 58 33% SE1725 27 mph 154° @ 0120 PM 99 77 69 23 29.92" 0 0 95 0
Goodlett 3W  08:05 PM 96 61 33% SE1724 32 mph 157° @ 0625 PM 102 77 69 28 29.85" 0 0 103 0
Goodnight  08:05 PM 94 60 32% S1720 30 mph 174° @ 0556 PM 101 73 89 21 29.93" 0 0 129 0
Graham 5SSW  08:05 PM 92 58 33% SE2025 34 mph 137° @ 0540 PM 96 76 70 25 29.93" 0 0 74 0
Guadalupe Mtns Natl Park  08:05 PM 82 52 37% NW34 31 mph 288° @ 1159 AM 91 66 80 26 30.14" 0 0.03 58 0
Guthrie 10WSW  08:05 PM 93 56 30% S1117 28 mph 173° @ 0120 PM 100 75 72 27 29.89" 0 0 88 0
Hackberry 2 SSE  08:05 PM 94 65 38% S1316 33 mph 188° @ 0208 PM 100 78 71 31 29.87" 0 0 91 0
Happy 1E  08:05 PM 92 54 27% S1921 34 mph 209° @ 0208 PM 99 70 68 23 29.96" 0 0 124 0
Hart 3N  08:05 PM 89 56 33% SE1015 28 mph 204° @ 0920 AM 96 68 83 23 29.96" 0 0 118 0
Haskell 1NW  08:05 PM 92 63 40% SE1318 27 mph 160° @ 0645 PM 97 79 75 34 29.88" 0 0 101 0
Hereford 2NW  08:05 PM 91 53 29% S1419 29 mph 204° @ 0120 PM 96 72 61 26 29.94" 0 0 123 0
Hobbs NM 5NW  08:05 PM 80 61 51% W1215 27 mph 207° @ 0657 PM 99 73 66 18 30.03" 0 0 9 0
Jayton 1SSE  08:05 PM 92 62 39% SE1420 28 mph 162° @ 0315 PM 98 76 74 31 29.90" 0 0 110 0
Junction 1SSW  08:05 PM 91 66 44% SE1216 26 mph 198° @ 1044 AM 97 73 87 35 29.96" 0 0 61 0
Knox City 3NW  08:05 PM 96 63 35% S1723 29 mph 173° @ 0430 PM 101 79 74 29 29.87" 0 0 75 0
Lake Alan Henry 1NW  08:05 PM 93 64 39% SE1214 29 mph 181° @ 0320 PM 99 78 71 25 29.91" 0 0 95 0
Lake McClellan 2NW  08:05 PM 90 61 38% SE1517 31 mph 192° @ 0132 AM 96 72 73 27 29.93" 0 0 97 0
Lamesa 2SE  08:05 PM 92 60 36% SE1620 25 mph 137° @ 0350 PM 96 75 77 29 29.94" 0 0 111 0
Lesley 2S  08:05 PM 96 63 34% SE1416 32 mph 185° @ 0457 PM 103 77 65 23 29.85" 0 0 90 0
Levelland 4S  08:05 PM 90 56 33% SE1318 26 mph 180° @ 0215 PM 96 73 73 25 29.96" 0 0 24 0
Lomax 1SSE  08:05 PM 94 60 33% S1620 28 mph 175° @ 0622 PM 99 77 73 27 29.93" 0 0 88 0
Lubbock 3WNW TTU  08:05 PM 93 51 25% S1319 28 mph 178° @ 0415 PM 99 75 66 23 29.95" 0 0 126 0
McCamey 1SSW  08:05 PM 93 64 39% S1518 30 mph 149° @ 0217 PM 98 77 71 35 29.94" 0 0 79 0
McLean 1E  08:05 PM 91 62 40% S1522 31 mph 163° @ 0750 PM 95 74 74 29 29.89" 0 0 69 0
Memphis 1NE  08:05 PM 94 59 33% SE1318 27 mph 170° @ 0330 PM 99 75 75 28 29.86" 0 0 67 0
Menard 2NW   08:05 PM 89 67 49% SE1722 26 mph 159° @ 0351 PM 95 73 87 37 29.97" 0 0 70 0
Mertzon 3NNE  08:05 PM 91 63 40% SE1216 31 mph 181° @ 0905 AM 96 74 89 33 29.95" 0 0 70 0
Morton 1ENE  08:05 PM 90 52 29% SE1014 28 mph 155° @ 0235 PM 98 69 74 21 29.96" 0 0 60 0
Muleshoe 2SSW  08:05 PM 88 53 32% SE1215 25 mph 169° @ 0350 PM 96 69 71 25 29.95" 0 0 40 0
New Home  08:05 PM 92 57 31% S811 27 mph 184° @ 1259 PM 98 74 71 24 29.97" 0 0 58 0
Northfield 1S  08:05 PM 95 58 31% S1521 31 mph 166° @ 0315 PM 100 76 66 26 29.87" 0 0 99 0
O'Donnell 1N  08:05 PM 92 53 28% SE1317 28 mph 169° @ 0150 PM 97 75 68 19 29.95" 0 0 92 0
Odell 4ENE  08:05 PM 93 66 41% SE1620 28 mph 168° @ 0330 PM 100 79 70 32 29.87" 0 0 78 0
Olton 6S  08:05 PM 90 53 30% S1317 28 mph 199° @ 0300 PM 96 68 77 23 29.95" 0 0 99 0
Paducah 10SW  08:05 PM 93 58 33% S1521 36 mph 186° @ 0240 PM 99 73 80 30 29.88" 0 0 90 0
Palo Duro 4E (JA Ranch)  08:05 PM 96 62 33% SE1924 41 mph 218° @ 0259 PM 104 73 65 21 29.88" 0 0 107 0
Palo Duro Canyon SP Floor  08:05 PM 97 57 27% SE1114 27 mph 145° @ 0318 PM 102 79 58 20 29.89" 0 0 113 0
Palo Duro Canyon State Park Rim  08:05 PM 93 56 29% S1521 30 mph 194° @ 1045 AM 100 76 59 22 29.94" 0 0 107 0
Palo Duro Reservoir 1NW   08:05 PM 94 58 30% S2125 35 mph 181° @ 0405 PM 101 70 66 25 29.85" 0 0 99 0
Pampa 2E  08:05 PM 92 59 35% S1724 32 mph 168° @ 0550 PM 98 70 76 25 29.91" 0 0 142 0
Panhandle 1SSW  08:05 PM 89 60 38% S1316 29 mph 211° @ 1027 AM 96 69 85 29 29.94" 0 0 117 0
Plains 3N  08:05 PM 91 57 34% SE1318 37 mph 174° @ 0140 PM 97 73 72 23 29.97" 0 0 56 0
Plainview 1S  08:05 PM 91 56 31% S1216 27 mph 195° @ 0205 PM 96 72 77 27 29.94" 0 0 113 0
Post 1NE  08:05 PM 93 57 30% SE1318 27 mph 164° @ 0405 PM 99 77 64 22 29.92" 0 0 80 0
Ralls 1SE  08:05 PM 91 54 30% SE1824 28 mph 159° @ 0400 PM 97 70 74 27 29.95" 0 0 106 0
Reese Center  08:05 PM 92 54 29% SE1520 29 mph 179° @ 0250 PM 97 72 71 24 29.95" 0 0 69 0
Roaring Springs 3N  08:05 PM 91 62 40% S1116 28 mph 179° @ 0200 PM 96 72 85 36 29.92" 0 0 94 0
Romero 11 SSW  08:05 PM 95 57 28% S2125 36 mph 190° @ 0519 PM 101 68 82 23 29.90" 0 0.10 133 1
Rotan 5W  08:05 PM 92 64 39% SE1924 29 mph 143° @ 0643 PM 98 78 73 30 29.92" 0 0 96 0
San Angelo 7NW  08:05 PM 91 59 36% SE1217 25 mph 174° @ 1050 AM 96 76 77 31 29.92" 0 0 82 0
Seagraves 1SW  08:05 PM 92 57 32% SE913 24 mph 176° @ 0925 AM 98 73 74 28 29.94" 0 0 24 0
Segovia 7SSW  08:05 PM 88 65 48% SE1723 28 mph 156° @ 0323 AM 93 72 88 39 30.00" 0 0 63 0
Seminole 2NNE  08:05 PM 92 55 30% SE812 25 mph 170° @ 0850 AM 98 73 70 22 29.94" 0 0 16 0
Seymour 3NW  08:05 PM 92 66 45% SE1217 29 mph 172° @ 0420 PM 97 76 79 35 29.88" 0 0 94 0
Sierra Blanca 1SSE  08:05 PM 82 57 42% E1012 30 mph 153° @ 0708 PM 96 72 70 23 30.05" 0 0 37 0
Silverton 7ESE  08:05 PM 92 57 33% S1822 31 mph 214° @ 0900 AM 98 76 63 22 29.94" 0 0 104 0
Slaton 2NE  08:05 PM 92 56 31% S1520 29 mph 186° @ 0305 PM 97 73 71 25 29.94" 0 0 103 0
Smyer  08:05 PM 91 56 30% SE1013 29 mph 185° @ 0126 PM 96 72 74 26 29.96" 0 0 38 0
Snyder 3E  08:05 PM 91 58 35% S1824 33 mph 167° @ 0405 PM 96 75 82 32 29.93" 0 0 89 0
Snyder 3SSW  08:05 PM 92 62 36% SE1419 30 mph 153° @ 0336 PM 97 75 78 30 29.93" 0 0 94 0
South Plains 3ENE  08:05 PM 91 60 36% S1619 31 mph 178° @ 0346 PM 98 72 74 27 29.95" 0 0 95 0
Spur 1W  08:05 PM 94 60 34% S1420 27 mph 180° @ 0505 PM 99 73 71 25 29.90" 0 0 109 0
St. Lawrence 5SW  08:05 PM 90 61 38% SE1725 34 mph 174° @ 1210 PM 95 74 80 33 29.95" 0 0 71 0
Stamford 5ESE  08:05 PM 94 64 38% SE1821 30 mph 158° @ 0455 PM 99 79 76 32 29.90" 0 0 87 0
Sterling City 4WSW  08:05 PM 92 59 34% SE1215 30 mph 123° @ 0447 PM 97 75 82 28 29.95" 0 0 65 0
Stinnett 1NNW  08:05 PM 93 55 27% S1821 45 mph 231° @ 0217 AM 99 73 68 27 29.90" 0 0 117 0
Sundown 8WSW  08:05 PM 89 56 34% SE1014 26 mph 155° @ 0245 PM 95 71 77 26 29.96" 0 0 68 0
Sweetwater 11SW   08:05 PM 89 63 41% SE1219 29 mph 167° @ 1255 PM 95 74 84 32 29.97" 0 0 97 0
Tahoka 3NNE  08:05 PM 92 57 31% S1214 26 mph 185° @ 0955 AM 98 76 70 23 29.95" 0 0 94 0
Tarzan 2WNW  08:05 PM 93 64 39% SE1620 26 mph 141° @ 0701 PM 99 75 75 28 29.93" 0 0 94 0
Tatum NM 2SW  08:05 PM 78 56 48% SW2027 27 mph 215° @ 0805 PM 99 70 74 21 30.01" 0 0 18 0
Throckmorton 1SW  08:05 PM 92 68 45% SE1115 24 mph 154° @ 0404 PM 97 76 82 37 29.89" 0 0 81 0
Tulia 2ENE  08:05 PM 91 55 31% S1522 30 mph 213° @ 0910 AM 97 74 66 24 29.95" 0 0 116 0
Turkey 2WSW  08:05 PM 94 60 33% SE1824 31 mph 166° @ 0430 PM 100 79 63 26 29.89" 0 0 93 0
Umbarger 3NNE  08:05 PM 91 55 30% S2024 31 mph 181° @ 0103 PM 98 70 71 25 29.95" 0 0 115 1
Van Horn 3ENE  08:05 PM 74 66 75% NW34 33 mph 223° @ 0546 PM 99 71 85 22 30.02" 0.01 0.14 25 0
Vigo Park  08:05 PM 92 57 31% S1821 32 mph 200° @ 1227 PM 99 72 71 23 29.95" 0 0 115 0
Wall 2E  08:05 PM 92 64 40% SE1519 28 mph 152° @ 0308 PM 97 76 81 34 29.94" 0 0 82 0
Weinert 2NNE  08:05 PM 94 65 39% SE1618 30 mph 171° @ 0431 PM 99 79 73 30 29.89" 0 0 84 0
Welch  08:05 PM 92 62 37% SE1620 27 mph 157° @ 0416 PM 97 75 74 28 29.95" 0 0 28 0
White River Lake 6NW  08:05 PM 92 59 34% SE1624 29 mph 171° @ 0315 PM 98 73 72 28 29.92" 0 0 111 0
Wolfforth 6SSW  08:05 PM 91 55 30% SE1319 29 mph 171° @ 0300 PM 97 73 73 25 29.96" 0 0 30 0

West Texas Mesonet Home   Site Map/Menu  NWS Lubbock Soil Data  Daily Summary Page  24hr Precip  72hr Precip  Google Plot